Time;durP1;ratioP1;P1;durP2;ratioP2;P2;SDS_P1;SDS_P2;PMS_P1;PMS_P2;Temp;Humidity;BMP_temperature;BMP_pressure;BME280_temperature;BME280_humidity;BME280_pressure;Samples;Min_cycle;Max_cycle;Signal;HPM_P1;HPM_P2
2022/10/18 00:00:48;;;;;;;13.13;8.60;;;13.90;99.90;;;;;;5041150;28;20795;-79
2022/10/18 00:03:15;;;;;;;16.17;9.87;;;13.90;99.90;;;;;;5026693;28;20227;-79
2022/10/18 00:05:43;;;;;;;13.13;8.60;;;13.80;99.90;;;;;;5047339;28;20233;-79
2022/10/18 00:08:10;;;;;;;11.60;9.10;;;13.80;99.90;;;;;;5026848;28;20230;-79
2022/10/18 00:10:36;;;;;;;12.37;8.83;;;13.80;99.90;;;;;;5018727;28;20235;-79
2022/10/18 00:13:03;;;;;;;12.00;9.20;;;13.70;99.90;;;;;;5023377;28;20249;-78
2022/10/18 00:15:30;;;;;;;15.07;9.93;;;13.70;99.90;;;;;;5022109;28;20313;-79
2022/10/18 00:17:56;;;;;;;16.40;9.67;;;13.70;99.90;;;;;;5020773;28;20230;-79
2022/10/18 00:20:23;;;;;;;13.30;9.60;;;13.70;99.90;;;;;;5022449;28;20294;-79
2022/10/18 00:22:51;;;;;;;13.70;9.83;;;13.70;99.90;;;;;;5022857;28;20231;-79
2022/10/18 00:25:18;;;;;;;14.13;9.60;;;13.60;99.90;;;;;;5019962;28;20225;-78
2022/10/18 00:27:45;;;;;;;15.23;9.87;;;13.70;99.90;;;;;;5027004;28;20239;-79
2022/10/18 00:30:13;;;;;;;15.07;10.87;;;13.60;99.90;;;;;;5022726;28;20247;-78
2022/10/18 00:32:41;;;;;;;17.70;10.50;;;13.60;99.90;;;;;;5026992;28;20719;-79
2022/10/18 00:35:09;;;;;;;21.27;11.33;;;13.60;99.90;;;;;;5021301;28;20220;-79
2022/10/18 00:37:36;;;;;;;17.80;10.97;;;13.60;99.90;;;;;;5026043;28;20235;-79
2022/10/18 00:40:04;;;;;;;15.07;10.03;;;13.50;99.90;;;;;;5028368;28;20228;-79
2022/10/18 00:42:33;;;;;;;14.77;10.93;;;13.50;99.90;;;;;;5038965;28;20227;-79
2022/10/18 00:45:06;;;;;;;17.20;11.17;;;13.50;99.90;;;;;;5020712;28;20680;-78
2022/10/18 00:47:34;;;;;;;16.23;11.00;;;13.50;99.90;;;;;;5020996;28;20236;-78
2022/10/18 00:50:04;;;;;;;18.70;11.57;;;13.50;99.90;;;;;;5025272;28;20693;-79
2022/10/18 00:52:34;;;;;;;17.30;10.50;;;13.40;99.90;;;;;;5032261;28;20237;-79
2022/10/18 00:55:01;;;;;;;17.13;11.40;;;13.40;99.90;;;;;;5031947;28;20227;-78
2022/10/18 00:57:29;;;;;;;20.27;12.67;;;13.40;99.90;;;;;;5027441;28;20230;-79
2022/10/18 00:59:56;;;;;;;18.97;12.80;;;13.40;99.90;;;;;;5019441;28;20223;-78
2022/10/18 01:02:24;;;;;;;23.67;14.00;;;13.40;99.90;;;;;;5024823;28;20685;-79
2022/10/18 01:04:51;;;;;;;18.63;13.27;;;13.40;99.90;;;;;;5026221;28;20228;-79
2022/10/18 01:07:30;;;;;;;18.33;12.73;;;13.40;99.90;;;;;;5019732;28;20227;-79
2022/10/18 01:10:03;;;;;;;18.47;12.60;;;13.50;99.90;;;;;;5040356;28;20220;-79
2022/10/18 01:12:44;;;;;;;19.67;12.77;;;13.50;99.90;;;;;;5026784;28;20250;-79
2022/10/18 01:15:16;;;;;;;22.20;13.03;;;13.50;99.90;;;;;;5014743;28;20776;-78
2022/10/18 01:17:50;;;;;;;16.93;12.87;;;13.50;99.90;;;;;;5021464;28;20231;-78
2022/10/18 01:20:57;;;;;;;19.43;13.27;;;13.50;99.90;;;;;;5025660;28;20744;-79
2022/10/18 01:23:39;;;;;;;21.80;13.27;;;13.40;99.90;;;;;;4988585;28;20228;-79
2022/10/18 01:26:19;;;;;;;20.03;13.47;;;13.40;99.90;;;;;;5017834;28;20225;-79
2022/10/18 01:28:57;;;;;;;21.57;13.20;;;13.40;99.90;;;;;;5023568;28;20228;-79
2022/10/18 01:31:30;;;;;;;23.80;14.67;;;13.40;99.90;;;;;;5020624;28;20242;-78
2022/10/18 01:33:59;;;;;;;19.17;13.63;;;13.40;99.90;;;;;;5023074;28;20242;-78
2022/10/18 01:36:31;;;;;;;18.13;13.90;;;13.30;99.90;;;;;;5021817;28;20256;-78
2022/10/18 01:39:01;;;;;;;19.23;14.37;;;13.30;99.90;;;;;;5021305;28;20236;-78
2022/10/18 01:41:29;;;;;;;18.83;13.10;;;13.30;99.90;;;;;;5018176;28;20230;-78
2022/10/18 01:43:58;;;;;;;22.53;14.17;;;13.20;99.90;;;;;;5019183;28;20223;-78
2022/10/18 01:46:28;;;;;;;22.20;14.73;;;13.20;99.90;;;;;;5022677;28;20718;-78
2022/10/18 01:48:56;;;;;;;23.93;15.13;;;13.20;99.90;;;;;;5022297;28;20231;-78
2022/10/18 01:51:24;;;;;;;20.70;13.67;;;13.10;99.90;;;;;;5019990;28;20228;-78
2022/10/18 01:53:51;;;;;;;21.90;14.13;;;13.10;99.90;;;;;;5032756;28;20227;-78
2022/10/18 01:56:25;;;;;;;22.37;14.10;;;13.10;99.90;;;;;;5038482;28;20724;-78
2022/10/18 01:59:02;;;;;;;18.97;13.97;;;13.00;99.90;;;;;;5029730;28;20231;-78
2022/10/18 02:01:42;;;;;;;18.80;13.53;;;13.00;99.90;;;;;;5018724;28;20246;-78
2022/10/18 02:04:20;;;;;;;19.50;13.23;;;13.00;99.90;;;;;;5030984;28;20218;-78
2022/10/18 02:06:53;;;;;;;19.70;13.83;;;12.90;99.90;;;;;;5023386;28;20225;-78
2022/10/18 02:09:27;;;;;;;22.53;13.90;;;12.90;99.90;;;;;;5026737;28;20589;-78
2022/10/18 02:11:55;;;;;;;17.17;13.30;;;12.90;99.90;;;;;;5015571;28;20219;-78
2022/10/18 02:14:25;;;;;;;22.10;13.63;;;12.80;99.90;;;;;;5015890;28;20225;-78
2022/10/18 02:16:56;;;;;;;21.37;14.70;;;12.80;99.90;;;;;;5024450;28;20221;-78
2022/10/18 02:19:30;;;;;;;25.73;15.47;;;12.80;99.90;;;;;;5028014;28;20216;-78
2022/10/18 02:21:58;;;;;;;21.93;15.60;;;12.70;99.90;;;;;;5024752;28;20219;-78
2022/10/18 02:24:30;;;;;;;20.47;14.53;;;12.70;99.90;;;;;;5020644;28;21047;-78
2022/10/18 02:26:56;;;;;;;23.07;15.67;;;12.70;99.90;;;;;;5021692;28;20417;-79
2022/10/18 02:29:23;;;;;;;23.53;15.37;;;12.70;99.90;;;;;;5021545;28;20248;-79
2022/10/18 02:31:58;;;;;;;22.90;15.67;;;12.60;99.90;;;;;;5022090;28;20711;-78
2022/10/18 02:34:30;;;;;;;21.27;14.73;;;12.60;99.90;;;;;;5018264;28;20237;-78
2022/10/18 02:36:59;;;;;;;23.57;14.57;;;12.60;99.90;;;;;;5023302;28;20218;-78
2022/10/18 02:39:29;;;;;;;27.97;15.23;;;12.60;99.90;;;;;;5022996;28;20251;-78
2022/10/18 02:41:57;;;;;;;26.40;16.93;;;12.60;99.90;;;;;;5024767;28;20270;-78
2022/10/18 02:44:24;;;;;;;25.00;14.80;;;12.60;99.90;;;;;;5013623;28;20236;-78
2022/10/18 02:46:51;;;;;;;26.47;15.10;;;12.50;99.90;;;;;;5020126;28;20219;-78
2022/10/18 02:49:19;;;;;;;27.80;15.40;;;12.50;99.90;;;;;;5012148;28;20257;-78
2022/10/18 02:51:46;;;;;;;22.03;15.20;;;12.50;99.90;;;;;;5015472;28;20307;-78
2022/10/18 02:54:13;;;;;;;23.13;14.73;;;12.40;99.90;;;;;;5021939;28;20223;-78
2022/10/18 02:56:39;;;;;;;22.40;14.10;;;12.40;99.90;;;;;;5021116;28;20231;-78
2022/10/18 02:59:07;;;;;;;26.30;13.87;;;12.40;99.90;;;;;;5018713;28;20268;-78
2022/10/18 03:01:34;;;;;;;21.53;12.57;;;12.30;99.90;;;;;;5015989;28;20229;-78
2022/10/18 03:04:01;;;;;;;21.80;13.20;;;12.30;99.90;;;;;;5019566;28;20219;-78
2022/10/18 03:06:29;;;;;;;23.37;12.73;;;12.20;99.90;;;;;;5016525;28;20225;-78
2022/10/18 03:08:56;;;;;;;20.87;13.17;;;12.20;99.90;;;;;;5041863;28;20217;-78
2022/10/18 03:11:22;;;;;;;21.70;14.17;;;12.10;99.90;;;;;;5019060;28;20319;-78
2022/10/18 03:13:49;;;;;;;25.03;16.10;;;12.10;99.90;;;;;;5035392;28;20672;-77
2022/10/18 03:16:17;;;;;;;26.23;17.23;;;12.10;99.90;;;;;;5017914;28;20353;-78
2022/10/18 03:18:43;;;;;;;29.20;18.47;;;12.10;99.90;;;;;;5036741;28;21572;-78
2022/10/18 03:21:10;;;;;;;30.33;18.47;;;12.20;99.90;;;;;;5019312;28;20258;-78
2022/10/18 03:23:40;;;;;;;31.43;19.17;;;12.20;99.90;;;;;;5021611;28;20224;-77
2022/10/18 03:26:07;;;;;;;30.23;18.77;;;12.20;99.90;;;;;;5019849;28;20232;-78
2022/10/18 03:28:33;;;;;;;28.70;19.63;;;12.30;99.90;;;;;;5021073;28;20234;-78
2022/10/18 03:31:01;;;;;;;28.53;18.57;;;12.30;99.90;;;;;;5015852;28;20231;-78
2022/10/18 03:33:28;;;;;;;27.37;19.33;;;12.30;99.90;;;;;;5019742;28;20314;-79
2022/10/18 03:35:55;;;;;;;27.83;19.40;;;12.40;99.90;;;;;;5022680;28;20226;-77
2022/10/18 03:38:22;;;;;;;32.17;18.80;;;12.40;99.90;;;;;;5025118;28;20227;-79
2022/10/18 03:40:50;;;;;;;30.47;18.23;;;12.40;99.90;;;;;;5030632;28;20221;-78
2022/10/18 03:43:16;;;;;;;24.17;16.17;;;12.50;99.90;;;;;;5025269;28;20656;-78
2022/10/18 03:45:43;;;;;;;30.10;17.97;;;12.50;99.90;;;;;;5025523;28;20251;-78
2022/10/18 03:48:10;;;;;;;28.27;18.00;;;12.50;99.90;;;;;;5021383;28;21026;-78
2022/10/18 03:50:36;;;;;;;28.17;18.63;;;12.50;99.90;;;;;;5019859;28;20813;-78
2022/10/18 03:53:03;;;;;;;25.50;17.97;;;12.50;99.90;;;;;;5019915;28;20469;-78
2022/10/18 03:55:30;;;;;;;31.67;19.43;;;12.50;99.90;;;;;;5031465;28;20235;-78
2022/10/18 03:57:58;;;;;;;31.60;18.23;;;12.50;99.90;;;;;;5022585;28;20682;-78
2022/10/18 04:00:24;;;;;;;33.40;20.50;;;12.50;99.90;;;;;;5019364;28;20258;-79
2022/10/18 04:02:51;;;;;;;30.83;18.37;;;12.50;99.90;;;;;;5010607;28;20231;-79
2022/10/18 04:05:18;;;;;;;35.33;19.23;;;12.60;99.90;;;;;;5024687;28;20314;-79
2022/10/18 04:07:45;;;;;;;30.60;20.37;;;12.60;99.90;;;;;;5036993;28;20233;-79
2022/10/18 04:10:11;;;;;;;32.83;19.03;;;12.60;99.90;;;;;;5020225;28;20220;-78
2022/10/18 04:12:38;;;;;;;35.53;21.27;;;12.60;99.90;;;;;;5036164;28;20655;-79
2022/10/18 04:15:07;;;;;;;29.40;20.07;;;12.70;99.90;;;;;;5023326;28;20223;-79
2022/10/18 04:17:34;;;;;;;35.07;21.37;;;12.70;99.90;;;;;;5018115;28;20232;-79
2022/10/18 04:20:00;;;;;;;34.77;20.80;;;12.70;99.90;;;;;;5022808;23;20733;-80
2022/10/18 04:22:27;;;;;;;27.83;18.80;;;12.80;99.90;;;;;;4990301;28;21116;-80
2022/10/18 04:24:55;;;;;;;29.17;18.93;;;12.70;99.90;;;;;;4992270;28;20224;-81
2022/10/18 04:27:22;;;;;;;26.60;18.00;;;12.70;99.90;;;;;;4990608;28;20298;-83
2022/10/18 04:29:49;;;;;;;26.13;17.43;;;12.70;99.90;;;;;;4990616;28;20229;-83
2022/10/18 04:32:17;;;;;;;29.10;18.10;;;12.70;99.90;;;;;;4991790;28;20300;-79
2022/10/18 04:34:43;;;;;;;32.13;17.90;;;12.60;99.90;;;;;;5001268;28;20328;-79
2022/10/18 04:37:10;;;;;;;28.00;18.63;;;12.60;99.90;;;;;;4987031;28;20232;-79
2022/10/18 04:39:37;;;;;;;30.80;19.33;;;12.60;99.90;;;;;;4992754;28;20300;-82
2022/10/18 04:42:03;;;;;;;28.93;18.40;;;12.50;99.90;;;;;;4980598;28;20231;-83
2022/10/18 04:44:30;;;;;;;128.90;24.03;;;12.50;99.90;;;;;;4987223;28;20271;-82
2022/10/18 04:46:57;;;;;;;51.40;20.10;;;12.40;99.90;;;;;;4986426;28;20222;-81
2022/10/18 04:49:25;;;;;;;33.60;19.37;;;12.30;99.90;;;;;;4989776;28;20923;-83
2022/10/18 04:51:51;;;;;;;33.30;18.77;;;12.30;99.90;;;;;;4988423;28;20229;-81
2022/10/18 04:54:18;;;;;;;27.30;17.30;;;12.20;99.90;;;;;;4986877;28;20247;-82
2022/10/18 04:56:45;;;;;;;33.73;18.00;;;12.20;99.90;;;;;;4989666;28;20226;-81
2022/10/18 04:59:11;;;;;;;26.03;17.50;;;12.20;99.90;;;;;;4984033;28;20266;-81
2022/10/18 05:01:38;;;;;;;26.77;16.80;;;12.10;99.90;;;;;;4986168;28;20341;-81
2022/10/18 05:04:05;;;;;;;27.43;16.50;;;12.10;99.90;;;;;;4987309;28;20257;-81
2022/10/18 05:06:33;;;;;;;31.07;18.73;;;12.10;99.90;;;;;;4993679;28;20233;-81
2022/10/18 05:08:59;;;;;;;25.27;16.47;;;12.00;99.90;;;;;;4978434;28;21757;-83
2022/10/18 05:11:26;;;;;;;29.00;17.13;;;12.00;99.90;;;;;;4994349;28;20226;-82
2022/10/18 05:13:53;;;;;;;31.87;18.53;;;12.00;99.90;;;;;;4990848;28;20602;-80
2022/10/18 05:16:20;;;;;;;35.77;18.80;;;11.90;99.90;;;;;;4990541;28;20222;-80
2022/10/18 05:18:46;;;;;;;33.37;20.97;;;11.90;99.90;;;;;;4986570;28;20721;-81
2022/10/18 05:21:13;;;;;;;39.20;24.20;;;11.90;99.90;;;;;;4983395;28;20230;-81
2022/10/18 05:23:43;;;;;;;41.87;23.97;;;11.90;99.90;;;;;;5002442;28;20305;-83
2022/10/18 05:26:10;;;;;;;37.60;21.43;;;11.90;99.90;;;;;;4989897;28;20248;-81
2022/10/18 05:28:37;;;;;;;37.20;20.00;;;11.80;99.90;;;;;;4992785;28;20232;-82
2022/10/18 05:31:05;;;;;;;31.90;19.10;;;11.80;99.90;;;;;;4993476;28;20223;-81
2022/10/18 05:33:32;;;;;;;31.40;18.53;;;11.80;99.90;;;;;;4987442;28;20230;-81
2022/10/18 05:35:59;;;;;;;31.37;18.27;;;11.90;99.90;;;;;;4990688;28;20229;-81
2022/10/18 05:38:29;;;;;;;33.57;20.57;;;11.90;99.90;;;;;;4992078;28;20260;-80
2022/10/18 05:40:58;;;;;;;42.13;29.47;;;11.90;99.90;;;;;;4989248;28;20564;-81
2022/10/18 05:43:27;;;;;;;37.73;24.70;;;11.90;99.90;;;;;;4988510;28;20238;-82
2022/10/18 05:45:54;;;;;;;34.07;22.63;;;12.00;99.90;;;;;;4988314;28;20222;-81
2022/10/18 05:48:20;;;;;;;41.93;22.07;;;12.00;99.90;;;;;;4989297;28;20224;-81
2022/10/18 05:50:47;;;;;;;32.93;19.50;;;12.00;99.90;;;;;;4989202;28;20241;-81
2022/10/18 05:53:14;;;;;;;37.40;21.17;;;12.10;99.90;;;;;;4991674;28;20429;-81
2022/10/18 05:55:41;;;;;;;36.00;21.87;;;12.10;99.90;;;;;;4957462;28;20231;-81
2022/10/18 05:58:09;;;;;;;40.17;22.53;;;12.10;99.90;;;;;;4975004;28;20237;-81
2022/10/18 06:00:37;;;;;;;35.53;21.33;;;12.20;99.90;;;;;;5003126;28;20317;-82
2022/10/18 06:03:04;;;;;;;37.90;20.37;;;12.20;99.90;;;;;;4976655;28;20222;-82
2022/10/18 06:05:30;;;;;;;34.27;20.20;;;12.30;99.90;;;;;;4978965;28;20224;-81
2022/10/18 06:07:57;;;;;;;31.60;20.57;;;12.30;99.90;;;;;;4980111;28;20906;-81
2022/10/18 06:10:24;;;;;;;36.97;20.97;;;12.30;99.90;;;;;;4983572;28;20245;-83
2022/10/18 06:12:51;;;;;;;32.33;20.90;;;12.40;99.90;;;;;;4986071;28;20237;-83
2022/10/18 06:15:19;;;;;;;38.63;20.70;;;12.40;99.90;;;;;;4983117;28;20222;-82
2022/10/18 06:17:45;;;;;;;33.47;21.03;;;12.50;99.90;;;;;;4994858;28;20218;-81
2022/10/18 06:20:12;;;;;;;37.57;21.17;;;12.50;99.90;;;;;;4981286;28;20235;-81
2022/10/18 06:22:39;;;;;;;33.63;21.97;;;12.50;99.90;;;;;;4986878;28;20233;-81
2022/10/18 06:25:06;;;;;;;35.97;21.63;;;12.50;99.90;;;;;;4981893;28;20225;-81
2022/10/18 06:27:34;;;;;;;32.40;19.57;;;12.50;99.90;;;;;;4984328;28;20243;-82
2022/10/18 06:30:00;;;;;;;32.50;20.30;;;12.50;99.90;;;;;;4987563;28;20254;-81
2022/10/18 06:32:28;;;;;;;31.60;19.23;;;12.50;99.90;;;;;;4985402;28;20546;-81
2022/10/18 06:34:55;;;;;;;32.30;20.30;;;12.60;99.90;;;;;;4981737;28;20225;-81
2022/10/18 06:37:22;;;;;;;29.33;18.53;;;12.60;99.90;;;;;;4979111;28;20812;-81
2022/10/18 06:39:48;;;;;;;31.87;20.00;;;12.60;99.90;;;;;;4983351;28;20225;-81
2022/10/18 06:42:15;;;;;;;32.60;20.10;;;12.60;99.90;;;;;;4978825;28;20223;-81
2022/10/18 06:44:42;;;;;;;30.17;19.47;;;12.60;99.90;;;;;;4984848;28;20240;-81
2022/10/18 06:47:08;;;;;;;28.03;19.63;;;12.60;99.90;;;;;;4985100;28;20231;-83
2022/10/18 06:49:36;;;;;;;27.63;17.80;;;12.70;99.90;;;;;;4983980;28;20240;-81
2022/10/18 06:52:03;;;;;;;32.47;17.77;;;12.70;99.90;;;;;;4983281;28;20243;-81
2022/10/18 06:54:30;;;;;;;30.70;17.97;;;12.70;99.90;;;;;;4984550;28;20841;-81
2022/10/18 06:56:57;;;;;;;32.73;17.93;;;12.70;99.90;;;;;;4979360;28;20228;-82
2022/10/18 06:59:24;;;;;;;29.73;16.57;;;12.70;99.90;;;;;;4985497;28;20242;-81
2022/10/18 07:01:50;;;;;;;30.23;17.13;;;12.80;99.90;;;;;;4973356;28;20231;-82
2022/10/18 07:04:17;;;;;;;29.80;16.80;;;12.70;99.90;;;;;;4979692;28;20256;-81
2022/10/18 07:06:45;;;;;;;31.33;19.07;;;12.80;99.90;;;;;;4977004;28;20232;-81
2022/10/18 07:09:12;;;;;;;28.43;17.73;;;12.80;99.90;;;;;;4983605;28;20224;-83
2022/10/18 07:11:38;;;;;;;30.03;18.93;;;12.80;99.90;;;;;;4985758;28;20228;-81
2022/10/18 07:14:05;;;;;;;30.67;18.90;;;12.80;99.90;;;;;;4977119;28;20230;-82
2022/10/18 07:16:33;;;;;;;35.67;20.60;;;12.80;99.90;;;;;;4986324;28;20227;-82
2022/10/18 07:19:00;;;;;;;32.50;19.10;;;12.80;99.90;;;;;;4985407;28;20794;-80
2022/10/18 07:21:27;;;;;;;35.50;20.97;;;12.80;99.90;;;;;;4979308;28;20233;-81
2022/10/18 07:23:56;;;;;;;30.13;20.33;;;12.80;99.90;;;;;;4982569;28;20243;-81
2022/10/18 07:26:26;;;;;;;33.90;21.57;;;12.90;99.90;;;;;;4977805;28;20287;-83
2022/10/18 07:28:54;;;;;;;35.43;21.37;;;12.90;99.90;;;;;;4982609;28;20290;-81
2022/10/18 07:31:22;;;;;;;30.73;20.50;;;12.90;99.90;;;;;;4994825;28;20728;-83
2022/10/18 07:33:49;;;;;;;32.47;19.57;;;13.00;99.90;;;;;;4983365;28;20225;-83
2022/10/18 07:36:16;;;;;;;31.63;19.60;;;13.00;99.90;;;;;;4987484;28;20223;-81
2022/10/18 07:38:43;;;;;;;23.83;16.63;;;13.00;99.90;;;;;;4986088;28;20242;-81
2022/10/18 07:41:13;;;;;;;25.57;15.73;;;13.10;99.90;;;;;;4986268;28;20276;-82
2022/10/18 07:43:42;;;;;;;24.10;15.07;;;13.10;99.90;;;;;;4992047;28;20241;-81
2022/10/18 07:46:09;;;;;;;26.50;16.20;;;13.10;99.90;;;;;;4978402;28;20232;-83
2022/10/18 07:48:36;;;;;;;27.03;16.00;;;13.10;99.90;;;;;;4982653;28;20244;-81
2022/10/18 07:51:03;;;;;;;25.83;15.73;;;13.10;99.90;;;;;;4984912;28;20254;-80
2022/10/18 07:53:30;;;;;;;24.07;15.53;;;13.10;99.90;;;;;;4986522;28;20290;-81
2022/10/18 07:55:58;;;;;;;25.23;16.03;;;13.20;99.90;;;;;;4975642;28;20229;-81
2022/10/18 07:58:27;;;;;;;27.43;15.80;;;13.20;99.90;;;;;;4976464;28;20229;-81
2022/10/18 08:00:54;;;;;;;26.40;14.10;;;13.30;99.90;;;;;;4992330;28;20219;-83
2022/10/18 08:03:20;;;;;;;26.00;14.33;;;13.30;99.90;;;;;;4993404;28;20231;-81
2022/10/18 08:05:51;;;;;;;26.13;15.07;;;13.30;99.90;;;;;;4988115;28;20232;-80
2022/10/18 08:08:18;;;;;;;23.37;14.10;;;13.40;99.90;;;;;;4984911;28;20220;-81
2022/10/18 08:10:45;;;;;;;26.60;15.37;;;13.50;99.90;;;;;;4969244;28;20869;-82
2022/10/18 08:13:11;;;;;;;25.47;14.83;;;13.50;99.90;;;;;;4982182;28;20222;-82
2022/10/18 08:15:39;;;;;;;23.60;14.83;;;13.50;99.90;;;;;;4984896;28;20233;-82
2022/10/18 08:18:06;;;;;;;21.00;14.77;;;13.60;99.90;;;;;;4977755;28;20235;-81
2022/10/18 08:20:35;;;;;;;24.17;14.63;;;13.60;99.90;;;;;;4979239;28;84621;-81
2022/10/18 08:23:01;;;;;;;24.43;14.37;;;13.60;99.90;;;;;;4989958;28;20747;-81
2022/10/18 08:25:28;;;;;;;23.90;14.27;;;13.70;99.90;;;;;;4990584;28;20224;-82
2022/10/18 08:27:55;;;;;;;24.67;15.80;;;13.70;99.90;;;;;;4987330;28;20233;-82
2022/10/18 08:30:22;;;;;;;23.47;14.33;;;13.70;99.90;;;;;;4990837;28;20233;-81
2022/10/18 08:32:52;;;;;;;21.90;13.13;;;13.70;99.90;;;;;;4986051;28;20321;-82
2022/10/18 08:35:19;;;;;;;23.40;14.07;;;13.70;99.90;;;;;;4980983;28;20230;-82
2022/10/18 08:37:47;;;;;;;25.57;14.23;;;13.70;99.90;;;;;;4986806;28;20748;-82
2022/10/18 08:40:14;;;;;;;26.73;15.47;;;13.70;99.90;;;;;;4990904;28;20336;-81
2022/10/18 08:43:00;;;;;;;25.10;15.43;;;13.70;99.90;;;;;;5004915;28;20235;-81
2022/10/18 08:45:28;;;;;;;24.77;15.63;;;13.70;99.90;;;;;;4988589;28;20316;-82
2022/10/18 08:47:57;;;;;;;24.20;15.67;;;13.80;99.90;;;;;;4986839;28;20226;-81
2022/10/18 08:50:26;;;;;;;27.20;16.70;;;13.80;99.90;;;;;;4987930;28;20718;-81
2022/10/18 08:52:58;;;;;;;26.90;17.70;;;13.80;99.90;;;;;;4985864;28;20231;-81
2022/10/18 08:55:35;;;;;;;29.83;17.83;;;13.90;99.90;;;;;;4982661;28;20232;-81
2022/10/18 08:58:02;;;;;;;27.03;18.27;;;13.90;99.90;;;;;;4988540;28;20248;-80
2022/10/18 09:00:33;;;;;;;31.17;18.27;;;14.00;99.90;;;;;;4990743;28;20234;-83
2022/10/18 09:03:21;;;;;;;28.03;19.27;;;14.00;99.90;;;;;;4982598;28;20221;-81
2022/10/18 09:05:51;;;;;;;26.43;15.30;;;14.10;99.90;;;;;;4990176;28;20233;-81
2022/10/18 09:08:43;;;;;;;24.80;16.20;;;14.20;99.90;;;;;;4994777;28;20311;-81
2022/10/18 09:11:26;;;;;;;24.93;16.23;;;14.20;99.90;;;;;;4978721;28;20821;-81
2022/10/18 09:14:15;;;;;;;24.67;15.73;;;14.20;99.90;;;;;;4986292;28;20233;-83
2022/10/18 09:16:50;;;;;;;22.70;15.60;;;14.30;99.90;;;;;;4984272;28;20355;-83
2022/10/18 09:19:29;;;;;;;27.30;16.23;;;14.30;99.90;;;;;;4982691;28;20235;-81
2022/10/18 09:21:58;;;;;;;28.13;16.73;;;14.30;99.90;;;;;;4987017;28;20314;-80
2022/10/18 09:24:30;;;;;;;20.70;14.17;;;14.30;99.90;;;;;;4989146;28;20805;-81
2022/10/18 09:27:03;;;;;;;27.03;16.43;;;14.40;99.90;;;;;;4991074;28;20789;-81
2022/10/18 09:29:46;;;;;;;20.70;14.37;;;14.60;99.90;;;;;;4982109;28;20237;-82
2022/10/18 09:32:25;;;;;;;23.63;15.37;;;14.90;99.90;;;;;;4988904;28;20941;-82
2022/10/18 09:34:57;;;;;;;24.23;14.80;;;15.40;99.90;;;;;;4990310;28;20255;-83
2022/10/18 09:37:27;;;;;;;19.03;13.53;;;15.80;99.90;;;;;;4982794;28;21294;-81
2022/10/18 09:40:02;;;;;;;21.17;13.57;;;16.30;99.90;;;;;;4979813;28;20229;-82
2022/10/18 09:42:34;;;;;;;22.07;14.83;;;16.80;99.90;;;;;;4989825;28;20237;-82
2022/10/18 09:45:06;;;;;;;22.07;12.33;;;17.20;99.90;;;;;;4989302;28;20228;-83
2022/10/18 09:47:37;;;;;;;21.07;13.07;;;17.50;99.90;;;;;;4987149;28;20285;-83
2022/10/18 09:50:17;;;;;;;18.70;11.63;;;17.80;99.90;;;;;;4983693;28;20234;-81
2022/10/18 09:52:51;;;;;;;16.30;9.67;;;18.10;99.90;;;;;;4989526;28;20226;-82
2022/10/18 09:55:22;;;;;;;16.60;9.60;;;18.50;99.90;;;;;;4983730;28;20253;-82
2022/10/18 09:57:52;;;;;;;15.80;9.63;;;18.80;99.90;;;;;;4988280;28;20233;-81
2022/10/18 10:00:25;;;;;;;14.83;9.57;;;19.10;99.90;;;;;;4990130;28;20232;-83
2022/10/18 10:02:52;;;;;;;10.60;7.60;;;19.50;99.90;;;;;;4981958;28;20229;-84
2022/10/18 10:05:20;;;;;;;13.27;7.23;;;19.80;99.90;;;;;;4994613;28;20226;-81
2022/10/18 10:07:49;;;;;;;14.63;7.00;;;20.00;99.90;;;;;;4991769;28;20432;-80
2022/10/18 10:10:20;;;;;;;14.52;7.68;;;20.20;99.90;;;;;;4986015;28;20317;-82
2022/10/18 10:12:48;;;;;;;10.98;7.18;;;20.40;99.90;;;;;;4987803;28;20876;-82
2022/10/18 10:15:20;;;;;;;8.30;6.38;;;20.70;99.90;;;;;;4985462;28;20228;-81
2022/10/18 10:17:55;;;;;;;12.13;5.97;;;20.80;99.90;;;;;;4982103;28;20226;-79
2022/10/18 10:20:36;;;;;;;14.57;6.00;;;21.10;99.90;;;;;;4994181;22;20224;-82
2022/10/18 10:23:08;;;;;;;8.73;5.38;;;21.20;99.90;;;;;;4999629;28;20284;-82
2022/10/18 10:25:37;;;;;;;9.68;5.50;;;21.30;99.90;;;;;;4997311;28;20253;-84
2022/10/18 10:28:07;;;;;;;8.90;5.40;;;21.30;99.90;;;;;;5002316;28;20637;-81
2022/10/18 10:30:37;;;;;;;8.25;4.72;;;21.20;99.90;;;;;;4997762;28;20234;-82
2022/10/18 10:33:05;;;;;;;8.48;4.57;;;21.00;99.90;;;;;;5004005;28;20229;-82
2022/10/18 10:35:34;;;;;;;8.68;5.20;;;20.80;99.90;;;;;;5003550;28;20228;-81
2022/10/18 10:38:04;;;;;;;11.98;5.68;;;20.80;99.90;;;;;;5019007;28;20217;-79
2022/10/18 10:40:33;;;;;;;7.47;4.97;;;20.70;99.90;;;;;;5008588;28;20221;-82
2022/10/18 10:43:05;;;;;;;8.27;5.22;;;20.60;99.90;;;;;;5005485;28;20702;-83
2022/10/18 10:45:35;;;;;;;10.30;5.75;;;20.60;99.90;;;;;;5001338;28;20222;-86
2022/10/18 10:48:05;;;;;;;10.45;5.40;;;20.60;99.90;;;;;;5000124;28;20693;-86
2022/10/18 10:50:50;;;;;;;11.73;5.90;;;20.60;99.90;;;;;;5008976;28;20226;-84
2022/10/18 10:53:27;;;;;;;10.25;6.32;;;20.50;99.80;;;;;;5001437;28;20225;-83
2022/10/18 10:55:56;;;;;;;10.20;6.70;;;20.60;99.90;;;;;;4995803;28;20368;-82
2022/10/18 10:58:23;;;;;;;11.15;6.47;;;20.60;99.90;;;;;;5004352;28;20221;-82
2022/10/18 11:00:50;;;;;;;12.65;6.75;;;20.50;99.90;;;;;;4991628;28;20234;-82
2022/10/18 11:03:19;;;;;;;10.77;6.23;;;20.40;99.90;;;;;;4995789;28;21050;-81
2022/10/18 11:05:51;;;;;;;11.03;5.63;;;20.20;99.60;;;;;;5019374;28;20236;-82
2022/10/18 11:08:23;;;;;;;11.37;5.00;;;20.00;99.40;;;;;;5001139;28;20259;-82
2022/10/18 11:11:04;;;;;;;10.87;5.33;;;19.80;99.30;;;;;;5005409;28;20237;-83
2022/10/18 11:13:48;;;;;;;8.40;5.30;;;19.50;99.20;;;;;;5003156;28;20254;-84
2022/10/18 11:16:19;;;;;;;10.43;4.90;;;19.30;99.50;;;;;;5011176;28;20235;-83
2022/10/18 11:18:50;;;;;;;9.27;5.60;;;19.20;99.90;;;;;;5018980;28;20243;-82
2022/10/18 11:21:22;;;;;;;9.13;5.63;;;19.10;99.90;;;;;;5021033;28;20227;-82
2022/10/18 11:23:48;;;;;;;8.67;5.13;;;19.00;99.90;;;;;;4993973;28;20324;-82
2022/10/18 11:26:41;;;;;;;12.17;5.60;;;19.00;99.90;;;;;;5001083;28;20228;-82
2022/10/18 11:29:24;;;;;;;11.23;5.20;;;19.10;99.90;;;;;;4994040;28;20731;-82
2022/10/18 11:32:00;;;;;;;8.03;4.90;;;19.20;99.90;;;;;;4996806;28;20621;-82
2022/10/18 11:34:47;;;;;;;8.77;4.67;;;19.30;99.90;;;;;;4996753;28;20755;-82
2022/10/18 11:37:29;;;;;;;8.77;4.87;;;19.50;99.90;;;;;;5003933;28;20220;-82
2022/10/18 11:40:06;;;;;;;9.90;4.77;;;19.60;99.10;;;;;;5004293;28;20249;-82
2022/10/18 11:42:43;;;;;;;8.70;4.30;;;19.70;99.10;;;;;;5000218;28;20236;-83
2022/10/18 11:45:24;;;;;;;8.57;4.67;;;19.70;99.20;;;;;;4998414;28;20224;-82
2022/10/18 11:47:58;;;;;;;10.20;5.10;;;19.70;98.20;;;;;;5001142;28;20234;-82
2022/10/18 11:50:32;;;;;;;9.77;5.27;;;19.70;98.50;;;;;;4998948;28;20701;-82
2022/10/18 11:53:09;;;;;;;10.70;5.43;;;19.60;98.30;;;;;;5006164;28;20751;-82
2022/10/18 11:55:47;;;;;;;10.63;5.90;;;19.50;98.50;;;;;;4999309;28;20555;-82
2022/10/18 11:58:34;;;;;;;9.37;5.03;;;19.50;98.60;;;;;;4998499;28;20224;-83
2022/10/18 12:01:11;;;;;;;9.63;5.43;;;19.40;97.90;;;;;;5017324;28;20225;-83
2022/10/18 12:03:49;;;;;;;10.07;5.27;;;19.30;98.20;;;;;;5021196;28;20882;-83
2022/10/18 12:06:20;;;;;;;11.57;5.47;;;19.10;97.80;;;;;;5004011;28;20220;-83
2022/10/18 12:08:50;;;;;;;11.33;5.90;;;18.90;98.00;;;;;;5001318;28;20231;-82
2022/10/18 12:11:22;;;;;;;14.50;5.70;;;18.70;97.60;;;;;;5017717;28;20236;-82
2022/10/18 12:13:52;;;;;;;14.07;5.70;;;18.40;98.00;;;;;;5014709;28;20758;-82
2022/10/18 12:16:22;;;;;;;12.03;5.70;;;18.20;98.30;;;;;;4997433;28;20219;-83
2022/10/18 12:18:54;;;;;;;11.93;5.37;;;18.00;98.70;;;;;;5006443;28;20786;-84
2022/10/18 12:21:23;;;;;;;12.53;4.10;;;17.80;99.10;;;;;;5007520;28;20226;-83
2022/10/18 12:23:55;;;;;;;12.63;4.37;;;17.70;99.30;;;;;;5005528;28;20765;-82
2022/10/18 12:26:22;;;;;;;12.23;4.20;;;17.70;99.20;;;;;;5007940;28;20891;-85
2022/10/18 12:28:59;;;;;;;8.67;4.00;;;17.60;99.40;;;;;;5006279;28;20253;-83
2022/10/18 12:31:32;;;;;;;8.60;4.03;;;17.60;99.30;;;;;;5000223;28;20264;-82
2022/10/18 12:34:03;;;;;;;10.77;4.23;;;17.60;99.70;;;;;;4996090;28;20938;-82
2022/10/18 12:36:59;;;;;;;10.33;4.80;;;17.70;99.40;;;;;;5000328;28;21006;-83
2022/10/18 12:39:30;;;;;;;9.93;3.80;;;17.80;99.40;;;;;;5015469;28;20229;-83
2022/10/18 12:41:57;;;;;;;10.30;4.60;;;17.90;99.40;;;;;;5004872;28;20233;-82
2022/10/18 12:44:30;;;;;;;7.40;3.73;;;17.90;99.90;;;;;;4995607;28;20247;-82